sensor_id;sensor_type;location;lat;lon;timestamp;pressure;altitude;pressure_sealevel;temperature;humidity
72157;BME280;60035;52.122;5.406;2023-12-04T00:00:55;101487.06;;;0.91;100.00
72157;BME280;60035;52.122;5.406;2023-12-04T00:03:22;101484.56;;;0.91;100.00
72157;BME280;60035;52.122;5.406;2023-12-04T00:05:48;101492.19;;;0.93;100.00
72157;BME280;60035;52.122;5.406;2023-12-04T00:08:15;101487.16;;;0.94;100.00
72157;BME280;60035;52.122;5.406;2023-12-04T00:10:42;101478.00;;;0.98;100.00
72157;BME280;60035;52.122;5.406;2023-12-04T00:13:08;101487.25;;;1.00;100.00
72157;BME280;60035;52.122;5.406;2023-12-04T00:15:35;101481.38;;;1.00;100.00
72157;BME280;60035;52.122;5.406;2023-12-04T00:18:02;101474.66;;;1.00;100.00
72157;BME280;60035;52.122;5.406;2023-12-04T00:20:28;101467.06;;;0.99;100.00
72157;BME280;60035;52.122;5.406;2023-12-04T00:22:55;101469.53;;;0.96;100.00
72157;BME280;60035;52.122;5.406;2023-12-04T00:25:22;101472.03;;;0.94;100.00
72157;BME280;60035;52.122;5.406;2023-12-04T00:27:48;101464.50;;;0.96;100.00
72157;BME280;60035;52.122;5.406;2023-12-04T00:30:15;101460.28;;;0.96;100.00
72157;BME280;60035;52.122;5.406;2023-12-04T00:32:41;101460.34;;;0.98;100.00
72157;BME280;60035;52.122;5.406;2023-12-04T00:35:08;101452.78;;;0.98;100.00
72157;BME280;60035;52.122;5.406;2023-12-04T00:37:34;101452.84;;;1.01;100.00
72157;BME280;60035;52.122;5.406;2023-12-04T00:40:06;101441.03;;;1.00;100.00
72157;BME280;60035;52.122;5.406;2023-12-04T00:42:34;101443.59;;;1.02;100.00
72157;BME280;60035;52.122;5.406;2023-12-04T00:45:02;101441.03;;;1.00;100.00
72157;BME280;60035;52.122;5.406;2023-12-04T00:47:28;101444.38;;;0.99;100.00
72157;BME280;60035;52.122;5.406;2023-12-04T00:49:55;101447.78;;;1.01;100.00
72157;BME280;60035;52.122;5.406;2023-12-04T00:52:21;101434.31;;;1.00;100.00
72157;BME280;60035;52.122;5.406;2023-12-04T00:54:48;101431.75;;;0.99;100.00
72157;BME280;60035;52.122;5.406;2023-12-04T00:57:14;101432.66;;;1.01;100.00
72157;BME280;60035;52.122;5.406;2023-12-04T00:59:41;101431.84;;;1.02;100.00
72157;BME280;60035;52.122;5.406;2023-12-04T01:02:08;101433.50;;;1.02;100.00
72157;BME280;60035;52.122;5.406;2023-12-04T01:04:34;101428.44;;;1.00;100.00
72157;BME280;60035;52.122;5.406;2023-12-04T01:07:01;101433.34;;;0.94;100.00
72157;BME280;60035;52.122;5.406;2023-12-04T01:09:28;101422.47;;;0.96;100.00
72157;BME280;60035;52.122;5.406;2023-12-04T01:11:55;101422.44;;;0.95;100.00
72157;BME280;60035;52.122;5.406;2023-12-04T01:14:21;101429.25;;;0.99;100.00
72157;BME280;60035;52.122;5.406;2023-12-04T01:16:48;101432.63;;;0.99;100.00
72157;BME280;60035;52.122;5.406;2023-12-04T01:19:14;101419.94;;;0.96;100.00
72157;BME280;60035;52.122;5.406;2023-12-04T01:21:43;101410.72;;;0.97;100.00
72157;BME280;60035;52.122;5.406;2023-12-04T01:24:10;101411.56;;;0.97;100.00
72157;BME280;60035;52.122;5.406;2023-12-04T01:26:37;101413.31;;;1.00;100.00
72157;BME280;60035;52.122;5.406;2023-12-04T01:29:04;101404.91;;;1.01;100.00
72157;BME280;60035;52.122;5.406;2023-12-04T01:31:30;101405.75;;;1.00;100.00
72157;BME280;60035;52.122;5.406;2023-12-04T01:33:57;101405.78;;;1.03;100.00
72157;BME280;60035;52.122;5.406;2023-12-04T01:36:24;101397.44;;;1.06;100.00
72157;BME280;60035;52.122;5.406;2023-12-04T01:38:50;101398.22;;;1.03;100.00
72157;BME280;60035;52.122;5.406;2023-12-04T01:41:17;101394.84;;;1.01;100.00
72157;BME280;60035;52.122;5.406;2023-12-04T01:43:43;101388.84;;;0.96;100.00
72157;BME280;60035;52.122;5.406;2023-12-04T01:46:10;101383.78;;;0.94;100.00
72157;BME280;60035;52.122;5.406;2023-12-04T01:48:37;101388.81;;;0.93;100.00
72157;BME280;60035;52.122;5.406;2023-12-04T01:51:06;101388.03;;;0.97;100.00
72157;BME280;60035;52.122;5.406;2023-12-04T01:53:35;101388.81;;;0.93;100.00
72157;BME280;60035;52.122;5.406;2023-12-04T01:56:02;101387.97;;;0.94;100.00
72157;BME280;60035;52.122;5.406;2023-12-04T01:58:29;101373.72;;;0.96;100.00
72157;BME280;60035;52.122;5.406;2023-12-04T02:00:56;101377.09;;;0.96;100.00
72157;BME280;60035;52.122;5.406;2023-12-04T02:03:22;101373.72;;;0.96;100.00
72157;BME280;60035;52.122;5.406;2023-12-04T02:05:51;101368.66;;;0.94;100.00
72157;BME280;60035;52.122;5.406;2023-12-04T02:08:17;101366.13;;;0.94;100.00
72157;BME280;60035;52.122;5.406;2023-12-04T02:10:44;101360.31;;;0.97;100.00
72157;BME280;60035;52.122;5.406;2023-12-04T02:13:11;101355.28;;;0.98;100.00
72157;BME280;60035;52.122;5.406;2023-12-04T02:15:38;101352.75;;;0.97;100.00
72157;BME280;60035;52.122;5.406;2023-12-04T02:18:04;101356.13;;;0.99;100.00
72157;BME280;60035;52.122;5.406;2023-12-04T02:20:35;101351.06;;;0.99;100.00
72157;BME280;60035;52.122;5.406;2023-12-04T02:23:02;101349.44;;;0.99;100.00
72157;BME280;60035;52.122;5.406;2023-12-04T02:25:30;101345.19;;;0.98;100.00
72157;BME280;60035;52.122;5.406;2023-12-04T02:28:07;101342.66;;;0.97;100.00
72157;BME280;60035;52.122;5.406;2023-12-04T02:30:37;101344.38;;;0.99;100.00
72157;BME280;60035;52.122;5.406;2023-12-04T02:33:05;101336.84;;;1.01;100.00
72157;BME280;60035;52.122;5.406;2023-12-04T02:35:34;101338.50;;;1.00;100.00
72157;BME280;60035;52.122;5.406;2023-12-04T02:38:02;101338.50;;;1.00;100.00
72157;BME280;60035;52.122;5.406;2023-12-04T02:40:29;101326.75;;;1.01;100.00
72157;BME280;60035;52.122;5.406;2023-12-04T02:42:56;101313.31;;;1.02;100.00
72157;BME280;60035;52.122;5.406;2023-12-04T02:45:22;101314.16;;;1.03;100.00
72157;BME280;60035;52.122;5.406;2023-12-04T02:47:49;101313.31;;;1.02;100.00
72157;BME280;60035;52.122;5.406;2023-12-04T02:50:17;101313.34;;;1.04;100.00
72157;BME280;60035;52.122;5.406;2023-12-04T02:52:43;101304.06;;;1.01;100.00
72157;BME280;60035;52.122;5.406;2023-12-04T02:55:10;101301.53;;;1.01;100.00
72157;BME280;60035;52.122;5.406;2023-12-04T02:57:36;101296.53;;;1.04;100.00
72157;BME280;60035;52.122;5.406;2023-12-04T03:00:03;101299.88;;;1.03;100.00
72157;BME280;60035;52.122;5.406;2023-12-04T03:02:31;101287.22;;;1.00;100.00
72157;BME280;60035;52.122;5.406;2023-12-04T03:04:57;101296.50;;;1.01;100.00
72157;BME280;60035;52.122;5.406;2023-12-04T03:07:24;101289.75;;;1.00;100.00
72157;BME280;60035;52.122;5.406;2023-12-04T03:09:51;101288.94;;;1.01;100.00
72157;BME280;60035;52.122;5.406;2023-12-04T03:12:17;101281.34;;;0.99;100.00
72157;BME280;60035;52.122;5.406;2023-12-04T03:14:44;101280.50;;;1.00;100.00
72157;BME280;60035;52.122;5.406;2023-12-04T03:17:10;101272.94;;;1.00;100.00
72157;BME280;60035;52.122;5.406;2023-12-04T03:19:37;101271.28;;;1.01;100.00
72157;BME280;60035;52.122;5.406;2023-12-04T03:22:04;101265.38;;;1.00;100.00
72157;BME280;60035;52.122;5.406;2023-12-04T03:24:30;101270.38;;;0.99;100.00
72157;BME280;60035;52.122;5.406;2023-12-04T03:26:57;101258.66;;;0.99;100.00
72157;BME280;60035;52.122;5.406;2023-12-04T03:29:23;101255.28;;;1.00;100.00
72157;BME280;60035;52.122;5.406;2023-12-04T03:31:50;101262.03;;;1.03;100.00
72157;BME280;60035;52.122;5.406;2023-12-04T03:34:17;101252.81;;;1.02;100.00
72157;BME280;60035;52.122;5.406;2023-12-04T03:36:44;101246.91;;;1.02;100.00
72157;BME280;60035;52.122;5.406;2023-12-04T03:39:10;101238.50;;;1.03;100.00
72157;BME280;60035;52.122;5.406;2023-12-04T03:41:37;101242.66;;;0.99;100.00
72157;BME280;60035;52.122;5.406;2023-12-04T03:44:03;101243.50;;;0.98;100.00
72157;BME280;60035;52.122;5.406;2023-12-04T03:46:30;101229.19;;;0.97;100.00
72157;BME280;60035;52.122;5.406;2023-12-04T03:48:56;101231.72;;;0.97;100.00
72157;BME280;60035;52.122;5.406;2023-12-04T03:51:23;101236.72;;;0.95;100.00
72157;BME280;60035;52.122;5.406;2023-12-04T03:53:49;101226.66;;;0.95;100.00
72157;BME280;60035;52.122;5.406;2023-12-04T03:56:16;101224.06;;;0.94;100.00
72157;BME280;60035;52.122;5.406;2023-12-04T03:58:43;101219.03;;;0.94;100.00
72157;BME280;60035;52.122;5.406;2023-12-04T04:01:09;101215.66;;;0.92;100.00
72157;BME280;60035;52.122;5.406;2023-12-04T04:03:36;101212.31;;;0.93;100.00
72157;BME280;60035;52.122;5.406;2023-12-04T04:06:02;101207.22;;;0.91;100.00
72157;BME280;60035;52.122;5.406;2023-12-04T04:08:29;101205.56;;;0.90;100.00
72157;BME280;60035;52.122;5.406;2023-12-04T04:10:56;101206.38;;;0.89;100.00
72157;BME280;60035;52.122;5.406;2023-12-04T04:13:22;101200.50;;;0.89;100.00
72157;BME280;60035;52.122;5.406;2023-12-04T04:15:48;101197.91;;;0.87;100.00
72157;BME280;60035;52.122;5.406;2023-12-04T04:18:15;101203.81;;;0.88;100.00
72157;BME280;60035;52.122;5.406;2023-12-04T04:20:42;101184.47;;;0.87;100.00
72157;BME280;60035;52.122;5.406;2023-12-04T04:23:08;101190.34;;;0.87;100.00
72157;BME280;60035;52.122;5.406;2023-12-04T04:25:35;101181.97;;;0.88;100.00
72157;BME280;60035;52.122;5.406;2023-12-04T04:28:01;101183.66;;;0.88;100.00
72157;BME280;60035;52.122;5.406;2023-12-04T04:30:28;101174.41;;;0.87;100.00
72157;BME280;60035;52.122;5.406;2023-12-04T04:32:54;101176.09;;;0.88;100.00
72157;BME280;60035;52.122;5.406;2023-12-04T04:35:21;101176.09;;;0.88;100.00
72157;BME280;60035;52.122;5.406;2023-12-04T04:37:47;101171.88;;;0.87;100.00
72157;BME280;60035;52.122;5.406;2023-12-04T04:40:17;101166.84;;;0.88;100.00
72157;BME280;60035;52.122;5.406;2023-12-04T04:42:44;101171.88;;;0.88;100.00
72157;BME280;60035;52.122;5.406;2023-12-04T04:45:10;101165.19;;;0.89;100.00
72157;BME280;60035;52.122;5.406;2023-12-04T04:47:37;101169.41;;;0.91;100.00
72157;BME280;60035;52.122;5.406;2023-12-04T04:50:04;101168.56;;;0.91;100.00
72157;BME280;60035;52.122;5.406;2023-12-04T04:52:30;101171.13;;;0.92;100.00
72157;BME280;60035;52.122;5.406;2023-12-04T04:54:58;101168.56;;;0.91;100.00
72157;BME280;60035;52.122;5.406;2023-12-04T04:57:25;101163.53;;;0.91;100.00
72157;BME280;60035;52.122;5.406;2023-12-04T04:59:51;101164.38;;;0.91;100.00
72157;BME280;60035;52.122;5.406;2023-12-04T05:02:18;101162.72;;;0.92;100.00
72157;BME280;60035;52.122;5.406;2023-12-04T05:04:44;101162.72;;;0.93;100.00
72157;BME280;60035;52.122;5.406;2023-12-04T05:07:11;101156.84;;;0.93;100.00
72157;BME280;60035;52.122;5.406;2023-12-04T05:09:37;101156.84;;;0.93;100.00
72157;BME280;60035;52.122;5.406;2023-12-04T05:12:04;101161.91;;;0.94;100.00
72157;BME280;60035;52.122;5.406;2023-12-04T05:14:31;101161.09;;;0.95;100.00
72157;BME280;60035;52.122;5.406;2023-12-04T05:16:58;101150.16;;;0.95;100.00
72157;BME280;60035;52.122;5.406;2023-12-04T05:19:24;101143.41;;;0.94;100.00
72157;BME280;60035;52.122;5.406;2023-12-04T05:21:51;101149.31;;;0.94;100.00
72157;BME280;60035;52.122;5.406;2023-12-04T05:24:17;101141.72;;;0.93;100.00
72157;BME280;60035;52.122;5.406;2023-12-04T05:26:44;101142.53;;;0.90;100.00
72157;BME280;60035;52.122;5.406;2023-12-04T05:29:10;101148.41;;;0.92;100.00
72157;BME280;60035;52.122;5.406;2023-12-04T05:31:37;101140.03;;;0.92;100.00
72157;BME280;60035;52.122;5.406;2023-12-04T05:34:03;101141.72;;;0.93;100.00
72157;BME280;60035;52.122;5.406;2023-12-04T05:36:30;101134.97;;;0.92;100.00
72157;BME280;60035;52.122;5.406;2023-12-04T05:38:57;101125.72;;;0.92;100.00
72157;BME280;60035;52.122;5.406;2023-12-04T05:41:26;101120.72;;;0.94;100.00
72157;BME280;60035;52.122;5.406;2023-12-04T05:43:53;101108.94;;;0.93;100.00
72157;BME280;60035;52.122;5.406;2023-12-04T05:46:20;101110.63;;;0.94;100.00
72157;BME280;60035;52.122;5.406;2023-12-04T05:48:47;101103.94;;;0.96;100.00
72157;BME280;60035;52.122;5.406;2023-12-04T05:51:14;101114.03;;;0.96;100.00
72157;BME280;60035;52.122;5.406;2023-12-04T05:53:41;101106.47;;;0.96;100.00
72157;BME280;60035;52.122;5.406;2023-12-04T05:56:08;101098.88;;;0.94;100.00
72157;BME280;60035;52.122;5.406;2023-12-04T05:58:35;101108.16;;;0.95;100.00
72157;BME280;60035;52.122;5.406;2023-12-04T06:01:02;101103.13;;;0.98;100.00
72157;BME280;60035;52.122;5.406;2023-12-04T06:03:29;101098.94;;;0.99;100.00
72157;BME280;60035;52.122;5.406;2023-12-04T06:05:55;101096.41;;;0.97;100.00
72157;BME280;60035;52.122;5.406;2023-12-04T06:08:25;101095.56;;;0.98;100.00
72157;BME280;60035;52.122;5.406;2023-12-04T06:10:51;101088.81;;;0.97;100.00
72157;BME280;60035;52.122;5.406;2023-12-04T06:13:18;101097.25;;;0.98;100.00
72157;BME280;60035;52.122;5.406;2023-12-04T06:15:45;101095.56;;;0.98;100.00
72157;BME280;60035;52.122;5.406;2023-12-04T06:18:11;101090.53;;;0.98;100.00
72157;BME280;60035;52.122;5.406;2023-12-04T06:20:38;101096.41;;;0.99;100.00
72157;BME280;60035;52.122;5.406;2023-12-04T06:23:05;101093.06;;;0.98;100.00
72157;BME280;60035;52.122;5.406;2023-12-04T06:25:32;101095.56;;;0.97;100.00
72157;BME280;60035;52.122;5.406;2023-12-04T06:27:58;101098.09;;;0.98;100.00
72157;BME280;60035;52.122;5.406;2023-12-04T06:30:25;101095.56;;;0.97;100.00
72157;BME280;60035;52.122;5.406;2023-12-04T06:32:53;101087.13;;;0.96;100.00
72157;BME280;60035;52.122;5.406;2023-12-04T06:35:20;101083.78;;;0.96;100.00
72157;BME280;60035;52.122;5.406;2023-12-04T06:37:48;101084.59;;;0.96;100.00
72157;BME280;60035;52.122;5.406;2023-12-04T06:40:16;101073.69;;;0.97;100.00
72157;BME280;60035;52.122;5.406;2023-12-04T06:42:44;101067.81;;;0.97;100.00
72157;BME280;60035;52.122;5.406;2023-12-04T06:45:11;101068.66;;;0.97;100.00
72157;BME280;60035;52.122;5.406;2023-12-04T06:47:39;101061.97;;;0.98;100.00
72157;BME280;60035;52.122;5.406;2023-12-04T06:50:06;101055.22;;;0.98;100.00
72157;BME280;60035;52.122;5.406;2023-12-04T06:52:33;101058.59;;;0.99;100.00
72157;BME280;60035;52.122;5.406;2023-12-04T06:54:59;101052.72;;;0.98;100.00
72157;BME280;60035;52.122;5.406;2023-12-04T06:57:26;101047.66;;;0.98;100.00
72157;BME280;60035;52.122;5.406;2023-12-04T06:59:53;101044.31;;;0.99;100.00
72157;BME280;60035;52.122;5.406;2023-12-04T07:02:19;101036.75;;;0.99;100.00
72157;BME280;60035;52.122;5.406;2023-12-04T07:04:46;101041.81;;;0.99;100.00
72157;BME280;60035;52.122;5.406;2023-12-04T07:07:12;101047.69;;;1.02;100.00
72157;BME280;60035;52.122;5.406;2023-12-04T07:09:39;101047.69;;;1.00;100.00
72157;BME280;60035;52.122;5.406;2023-12-04T07:12:06;101030.84;;;0.99;100.00
72157;BME280;60035;52.122;5.406;2023-12-04T07:14:33;101023.28;;;0.99;100.00
72157;BME280;60035;52.122;5.406;2023-12-04T07:17:00;101021.63;;;0.99;100.00
72157;BME280;60035;52.122;5.406;2023-12-04T07:19:27;101021.63;;;0.99;100.00
72157;BME280;60035;52.122;5.406;2023-12-04T07:21:55;101019.94;;;1.00;100.00
72157;BME280;60035;52.122;5.406;2023-12-04T07:24:21;101016.59;;;1.01;100.00
72157;BME280;60035;52.122;5.406;2023-12-04T07:26:48;101014.09;;;1.03;100.00
72157;BME280;60035;52.122;5.406;2023-12-04T07:29:15;101014.09;;;1.03;100.00
72157;BME280;60035;52.122;5.406;2023-12-04T07:31:42;101020.84;;;1.05;100.00
72157;BME280;60035;52.122;5.406;2023-12-04T07:34:09;101015.81;;;1.05;100.00
72157;BME280;60035;52.122;5.406;2023-12-04T07:36:35;101021.69;;;1.06;100.00
72157;BME280;60035;52.122;5.406;2023-12-04T07:39:02;101020.88;;;1.07;100.00
72157;BME280;60035;52.122;5.406;2023-12-04T07:41:32;101017.53;;;1.08;100.00
72157;BME280;60035;52.122;5.406;2023-12-04T07:43:59;101025.09;;;1.09;100.00
72157;BME280;60035;52.122;5.406;2023-12-04T07:46:26;101010.81;;;1.10;100.00
72157;BME280;60035;52.122;5.406;2023-12-04T07:48:52;101015.84;;;1.10;100.00
72157;BME280;60035;52.122;5.406;2023-12-04T07:51:22;101011.66;;;1.09;100.00
72157;BME280;60035;52.122;5.406;2023-12-04T07:53:51;101006.63;;;1.10;100.00
72157;BME280;60035;52.122;5.406;2023-12-04T07:56:18;101000.72;;;1.10;100.00
72157;BME280;60035;52.122;5.406;2023-12-04T07:58:47;101007.47;;;1.09;100.00
72157;BME280;60035;52.122;5.406;2023-12-04T08:01:13;101004.97;;;1.12;100.00
72157;BME280;60035;52.122;5.406;2023-12-04T08:03:41;101002.44;;;1.12;100.00
72157;BME280;60035;52.122;5.406;2023-12-04T08:06:07;101005.84;;;1.14;100.00
72157;BME280;60035;52.122;5.406;2023-12-04T08:08:34;101009.25;;;1.16;100.00
72157;BME280;60035;52.122;5.406;2023-12-04T08:11:01;101002.53;;;1.19;100.00
72157;BME280;60035;52.122;5.406;2023-12-04T08:13:28;101012.63;;;1.20;100.00
72157;BME280;60035;52.122;5.406;2023-12-04T08:15:54;101010.97;;;1.21;100.00
72157;BME280;60035;52.122;5.406;2023-12-04T08:18:21;101013.50;;;1.22;100.00
72157;BME280;60035;52.122;5.406;2023-12-04T08:20:47;101017.72;;;1.23;100.00
72157;BME280;60035;52.122;5.406;2023-12-04T08:23:14;101011.81;;;1.24;100.00
72157;BME280;60035;52.122;5.406;2023-12-04T08:25:41;101009.28;;;1.23;100.00
72157;BME280;60035;52.122;5.406;2023-12-04T08:28:08;101010.16;;;1.23;100.00
72157;BME280;60035;52.122;5.406;2023-12-04T08:30:36;101009.34;;;1.26;100.00
72157;BME280;60035;52.122;5.406;2023-12-04T08:33:02;100996.69;;;1.24;100.00
72157;BME280;60035;52.122;5.406;2023-12-04T08:35:29;101000.91;;;1.25;100.00
72157;BME280;60035;52.122;5.406;2023-12-04T08:37:56;100995.88;;;1.27;100.00
72157;BME280;60035;52.122;5.406;2023-12-04T08:40:23;100995.94;;;1.30;100.00
72157;BME280;60035;52.122;5.406;2023-12-04T08:42:49;100989.22;;;1.33;100.00
72157;BME280;60035;52.122;5.406;2023-12-04T08:45:16;100995.97;;;1.35;100.00
72157;BME280;60035;52.122;5.406;2023-12-04T08:47:45;100983.41;;;1.38;100.00
72157;BME280;60035;52.122;5.406;2023-12-04T08:50:12;100977.53;;;1.40;100.00
72157;BME280;60035;52.122;5.406;2023-12-04T08:52:39;100980.09;;;1.42;100.00
72157;BME280;60035;52.122;5.406;2023-12-04T08:55:09;100973.38;;;1.45;100.00
72157;BME280;60035;52.122;5.406;2023-12-04T08:57:36;100969.19;;;1.47;100.00
72157;BME280;60035;52.122;5.406;2023-12-04T09:00:03;100972.56;;;1.49;100.00
72157;BME280;60035;52.122;5.406;2023-12-04T09:02:30;100970.09;;;1.51;100.00
72157;BME280;60035;52.122;5.406;2023-12-04T09:04:57;100969.28;;;1.54;100.00
72157;BME280;60035;52.122;5.406;2023-12-04T09:07:24;100965.13;;;1.59;100.00
72157;BME280;60035;52.122;5.406;2023-12-04T09:09:53;100958.41;;;1.62;100.00
72157;BME280;60035;52.122;5.406;2023-12-04T09:12:20;100963.50;;;1.65;100.00
72157;BME280;60035;52.122;5.406;2023-12-04T09:14:46;100965.22;;;1.70;100.00
72157;BME280;60035;52.122;5.406;2023-12-04T09:17:13;100953.41;;;1.69;100.00
72157;BME280;60035;52.122;5.406;2023-12-04T09:19:40;100962.69;;;1.71;100.00
72157;BME280;60035;52.122;5.406;2023-12-04T09:22:07;100962.72;;;1.74;100.00
72157;BME280;60035;52.122;5.406;2023-12-04T09:24:44;100953.50;;;1.81;100.00
72157;BME280;60035;52.122;5.406;2023-12-04T09:27:11;100944.28;;;1.85;100.00
72157;BME280;60035;52.122;5.406;2023-12-04T09:29:38;100949.41;;;1.89;100.00
72157;BME280;60035;52.122;5.406;2023-12-04T09:32:05;100951.94;;;1.91;100.00
72157;BME280;60035;52.122;5.406;2023-12-04T09:34:32;100951.06;;;1.92;100.00
72157;BME280;60035;52.122;5.406;2023-12-04T09:36:59;100954.47;;;1.94;100.00
72157;BME280;60035;52.122;5.406;2023-12-04T09:39:36;100949.44;;;1.97;100.00
72157;BME280;60035;52.122;5.406;2023-12-04T09:42:02;100948.59;;;1.98;100.00
72157;BME280;60035;52.122;5.406;2023-12-04T09:44:30;100946.09;;;1.99;100.00
72157;BME280;60035;52.122;5.406;2023-12-04T09:46:57;100947.78;;;2.00;100.00
72157;BME280;60035;52.122;5.406;2023-12-04T09:49:26;100944.44;;;2.02;100.00
72157;BME280;60035;52.122;5.406;2023-12-04T09:51:57;100942.72;;;2.02;100.00
72157;BME280;60035;52.122;5.406;2023-12-04T09:54:24;100940.22;;;2.04;100.00
72157;BME280;60035;52.122;5.406;2023-12-04T09:56:51;100941.91;;;2.06;100.00
72157;BME280;60035;52.122;5.406;2023-12-04T09:59:19;100950.38;;;2.10;100.00
72157;BME280;60035;52.122;5.406;2023-12-04T10:01:50;100936.91;;;2.11;100.00
72157;BME280;60035;52.122;5.406;2023-12-04T10:04:18;100944.50;;;2.14;100.00
72157;BME280;60035;52.122;5.406;2023-12-04T10:06:45;100935.28;;;2.16;100.00
72157;BME280;60035;52.122;5.406;2023-12-04T10:09:12;100928.53;;;2.20;100.00
72157;BME280;60035;52.122;5.406;2023-12-04T10:11:41;100923.53;;;2.23;99.88
72157;BME280;60035;52.122;5.406;2023-12-04T10:14:20;100916.81;;;2.28;100.00
72157;BME280;60035;52.122;5.406;2023-12-04T10:16:48;100908.41;;;2.29;99.88
72157;BME280;60035;52.122;5.406;2023-12-04T10:19:19;100908.41;;;2.33;99.37
72157;BME280;60035;52.122;5.406;2023-12-04T10:21:48;100900.84;;;2.33;98.66
72157;BME280;60035;52.122;5.406;2023-12-04T10:24:35;100906.75;;;2.37;98.01
72157;BME280;60035;52.122;5.406;2023-12-04T10:27:04;100900.06;;;2.42;98.14
72157;BME280;60035;52.122;5.406;2023-12-04T10:29:44;100894.19;;;2.46;97.70
72157;BME280;60035;52.122;5.406;2023-12-04T10:32:12;100894.19;;;2.51;97.61
72157;BME280;60035;52.122;5.406;2023-12-04T10:34:42;100885.75;;;2.54;96.92
72157;BME280;60035;52.122;5.406;2023-12-04T10:37:11;100879.88;;;2.58;96.73
72157;BME280;60035;52.122;5.406;2023-12-04T10:39:50;100880.75;;;2.58;96.11
72157;BME280;60035;52.122;5.406;2023-12-04T10:42:25;100876.53;;;2.60;95.95
72157;BME280;60035;52.122;5.406;2023-12-04T10:44:55;100868.94;;;2.62;95.78
72157;BME280;60035;52.122;5.406;2023-12-04T10:47:22;100876.56;;;2.63;96.06
72157;BME280;60035;52.122;5.406;2023-12-04T10:49:51;100862.22;;;2.64;95.90
72157;BME280;60035;52.122;5.406;2023-12-04T10:52:18;100867.28;;;2.64;95.37
72157;BME280;60035;52.122;5.406;2023-12-04T10:54:49;100861.34;;;2.62;94.51
72157;BME280;60035;52.122;5.406;2023-12-04T10:57:33;100854.63;;;2.64;94.58
72157;BME280;60035;52.122;5.406;2023-12-04T11:00:04;100852.09;;;2.64;94.43
72157;BME280;60035;52.122;5.406;2023-12-04T11:02:34;100846.22;;;2.65;94.77
72157;BME280;60035;52.122;5.406;2023-12-04T11:05:07;100839.47;;;2.65;94.28
72157;BME280;60035;52.122;5.406;2023-12-04T11:07:54;100837.81;;;2.66;94.09
72157;BME280;60035;52.122;5.406;2023-12-04T11:10:52;100828.53;;;2.66;93.73
72157;BME280;60035;52.122;5.406;2023-12-04T11:13:27;100822.63;;;2.69;94.04
72157;BME280;60035;52.122;5.406;2023-12-04T11:16:01;100817.56;;;2.71;94.16
72157;BME280;60035;52.122;5.406;2023-12-04T11:18:31;100814.22;;;2.72;94.44
72157;BME280;60035;52.122;5.406;2023-12-04T11:21:01;100811.69;;;2.75;94.57
72157;BME280;60035;52.122;5.406;2023-12-04T11:23:31;100809.16;;;2.76;93.85
72157;BME280;60035;52.122;5.406;2023-12-04T11:25:58;100796.50;;;2.75;93.17
72157;BME280;60035;52.122;5.406;2023-12-04T11:28:27;100797.38;;;2.78;93.89
72157;BME280;60035;52.122;5.406;2023-12-04T11:30:55;100789.78;;;2.78;94.02
72157;BME280;60035;52.122;5.406;2023-12-04T11:33:21;100781.38;;;2.79;94.32
72157;BME280;60035;52.122;5.406;2023-12-04T11:35:50;100784.72;;;2.81;94.05
72157;BME280;60035;52.122;5.406;2023-12-04T11:38:17;100780.50;;;2.79;94.09
72157;BME280;60035;52.122;5.406;2023-12-04T11:40:46;100778.84;;;2.82;94.70
72157;BME280;60035;52.122;5.406;2023-12-04T11:43:25;100771.25;;;2.84;94.40
72157;BME280;60035;52.122;5.406;2023-12-04T11:45:52;100775.47;;;2.85;94.32
72157;BME280;60035;52.122;5.406;2023-12-04T11:48:23;100779.66;;;2.78;93.86
72157;BME280;60035;52.122;5.406;2023-12-04T11:50:50;100783.91;;;2.78;94.02
72157;BME280;60035;52.122;5.406;2023-12-04T11:53:17;100772.91;;;2.77;93.97
72157;BME280;60035;52.122;5.406;2023-12-04T11:55:44;100775.44;;;2.79;94.38
72157;BME280;60035;52.122;5.406;2023-12-04T11:58:12;100765.34;;;2.74;94.13
72157;BME280;60035;52.122;5.406;2023-12-04T12:00:38;100763.66;;;2.72;94.15
72157;BME280;60035;52.122;5.406;2023-12-04T12:03:08;100766.19;;;2.69;94.19
72157;BME280;60035;52.122;5.406;2023-12-04T12:05:49;100760.28;;;2.65;93.96
72157;BME280;60035;52.122;5.406;2023-12-04T12:08:16;100758.56;;;2.62;93.87
72157;BME280;60035;52.122;5.406;2023-12-04T12:10:43;100753.53;;;2.62;93.94
72157;BME280;60035;52.122;5.406;2023-12-04T12:13:11;100745.94;;;2.62;94.45
72157;BME280;60035;52.122;5.406;2023-12-04T12:15:38;100756.06;;;2.69;94.61
72157;BME280;60035;52.122;5.406;2023-12-04T12:18:05;100748.50;;;2.69;94.55
72157;BME280;60035;52.122;5.406;2023-12-04T12:20:36;100740.03;;;2.71;94.50
72157;BME280;60035;52.122;5.406;2023-12-04T12:23:03;100740.06;;;2.76;94.53
72157;BME280;60035;52.122;5.406;2023-12-04T12:25:30;100735.84;;;2.82;95.09
72157;BME280;60035;52.122;5.406;2023-12-04T12:27:57;100735.00;;;2.88;94.87
72157;BME280;60035;52.122;5.406;2023-12-04T12:30:24;100729.97;;;2.91;95.02
72157;BME280;60035;52.122;5.406;2023-12-04T12:32:50;100731.63;;;2.92;94.88
72157;BME280;60035;52.122;5.406;2023-12-04T12:35:18;100732.47;;;2.93;94.70
72157;BME280;60035;52.122;5.406;2023-12-04T12:37:45;100725.72;;;2.93;94.86
72157;BME280;60035;52.122;5.406;2023-12-04T12:40:12;100726.56;;;2.91;95.02
72157;BME280;60035;52.122;5.406;2023-12-04T12:42:40;100718.97;;;2.89;94.38
72157;BME280;60035;52.122;5.406;2023-12-04T12:45:10;100705.50;;;2.89;94.58
72157;BME280;60035;52.122;5.406;2023-12-04T12:47:41;100707.16;;;2.90;94.71
72157;BME280;60035;52.122;5.406;2023-12-04T12:50:09;100706.34;;;2.91;94.46
72157;BME280;60035;52.122;5.406;2023-12-04T12:52:40;100693.72;;;2.95;95.10
72157;BME280;60035;52.122;5.406;2023-12-04T12:55:07;100689.47;;;2.97;95.54